sensor_id;sensor_type;location;lat;lon;timestamp;temperature;humidity
4097;DHT22;2062;50.694;7.246;2023-02-25T00:01:33;5.00;67.50
4097;DHT22;2062;50.694;7.246;2023-02-25T00:04:00;5.00;67.60
4097;DHT22;2062;50.694;7.246;2023-02-25T00:06:27;5.00;67.60
4097;DHT22;2062;50.694;7.246;2023-02-25T00:08:54;5.00;67.60
4097;DHT22;2062;50.694;7.246;2023-02-25T00:11:23;5.00;67.60
4097;DHT22;2062;50.694;7.246;2023-02-25T00:13:51;5.00;67.50
4097;DHT22;2062;50.694;7.246;2023-02-25T00:16:19;5.00;67.50
4097;DHT22;2062;50.694;7.246;2023-02-25T00:18:46;5.00;67.50
4097;DHT22;2062;50.694;7.246;2023-02-25T00:21:14;5.00;67.40
4097;DHT22;2062;50.694;7.246;2023-02-25T00:23:43;4.90;67.40
4097;DHT22;2062;50.694;7.246;2023-02-25T00:26:10;5.00;67.30
4097;DHT22;2062;50.694;7.246;2023-02-25T00:28:38;4.90;67.40
4097;DHT22;2062;50.694;7.246;2023-02-25T00:31:10;4.90;67.60
4097;DHT22;2062;50.694;7.246;2023-02-25T00:33:37;4.90;67.40
4097;DHT22;2062;50.694;7.246;2023-02-25T00:36:07;4.90;67.30
4097;DHT22;2062;50.694;7.246;2023-02-25T00:38:35;4.90;67.30
4097;DHT22;2062;50.694;7.246;2023-02-25T00:41:05;4.90;67.30
4097;DHT22;2062;50.694;7.246;2023-02-25T00:43:36;4.90;67.40
4097;DHT22;2062;50.694;7.246;2023-02-25T00:46:04;4.90;67.40
4097;DHT22;2062;50.694;7.246;2023-02-25T00:48:32;4.70;67.20
4097;DHT22;2062;50.694;7.246;2023-02-25T00:51:04;4.90;67.30
4097;DHT22;2062;50.694;7.246;2023-02-25T00:53:32;4.80;67.20
4097;DHT22;2062;50.694;7.246;2023-02-25T00:55:59;4.80;67.10
4097;DHT22;2062;50.694;7.246;2023-02-25T00:58:26;4.80;67.20
4097;DHT22;2062;50.694;7.246;2023-02-25T01:00:53;4.90;67.30
4097;DHT22;2062;50.694;7.246;2023-02-25T01:03:20;4.90;67.30
4097;DHT22;2062;50.694;7.246;2023-02-25T01:05:49;4.90;67.30
4097;DHT22;2062;50.694;7.246;2023-02-25T01:08:16;4.80;67.20
4097;DHT22;2062;50.694;7.246;2023-02-25T01:10:43;4.80;67.10
4097;DHT22;2062;50.694;7.246;2023-02-25T01:13:10;4.80;67.20
4097;DHT22;2062;50.694;7.246;2023-02-25T01:15:37;4.80;67.90
4097;DHT22;2062;50.694;7.246;2023-02-25T01:18:04;4.80;67.10
4097;DHT22;2062;50.694;7.246;2023-02-25T01:20:31;4.80;67.10
4097;DHT22;2062;50.694;7.246;2023-02-25T01:23:00;4.80;67.00
4097;DHT22;2062;50.694;7.246;2023-02-25T01:25:26;4.80;67.10
4097;DHT22;2062;50.694;7.246;2023-02-25T01:27:53;4.80;67.10
4097;DHT22;2062;50.694;7.246;2023-02-25T01:30:21;4.80;67.00
4097;DHT22;2062;50.694;7.246;2023-02-25T01:32:48;4.70;67.00
4097;DHT22;2062;50.694;7.246;2023-02-25T01:35:15;4.70;67.00
4097;DHT22;2062;50.694;7.246;2023-02-25T01:37:41;4.80;67.00
4097;DHT22;2062;50.694;7.246;2023-02-25T01:40:14;4.70;66.90
4097;DHT22;2062;50.694;7.246;2023-02-25T01:42:42;4.70;67.00
4097;DHT22;2062;50.694;7.246;2023-02-25T01:45:26;4.70;66.90
4097;DHT22;2062;50.694;7.246;2023-02-25T01:47:57;4.70;67.00
4097;DHT22;2062;50.694;7.246;2023-02-25T01:50:36;4.70;67.00
4097;DHT22;2062;50.694;7.246;2023-02-25T01:53:05;4.70;66.90
4097;DHT22;2062;50.694;7.246;2023-02-25T01:55:34;4.70;66.90
4097;DHT22;2062;50.694;7.246;2023-02-25T01:58:02;4.70;66.90
4097;DHT22;2062;50.694;7.246;2023-02-25T02:00:30;4.70;66.80
4097;DHT22;2062;50.694;7.246;2023-02-25T02:02:58;4.70;66.90
4097;DHT22;2062;50.694;7.246;2023-02-25T02:05:36;4.60;66.80
4097;DHT22;2062;50.694;7.246;2023-02-25T02:08:04;4.60;66.70
4097;DHT22;2062;50.694;7.246;2023-02-25T02:10:31;4.60;66.60
4097;DHT22;2062;50.694;7.246;2023-02-25T02:13:00;4.60;66.60
4097;DHT22;2062;50.694;7.246;2023-02-25T02:15:28;4.60;66.60
4097;DHT22;2062;50.694;7.246;2023-02-25T02:18:00;4.60;66.60
4097;DHT22;2062;50.694;7.246;2023-02-25T02:20:31;4.60;66.60
4097;DHT22;2062;50.694;7.246;2023-02-25T02:23:18;4.60;66.50
4097;DHT22;2062;50.694;7.246;2023-02-25T02:26:09;4.60;66.40
4097;DHT22;2062;50.694;7.246;2023-02-25T02:29:16;4.60;66.50
4097;DHT22;2062;50.694;7.246;2023-02-25T02:32:01;4.60;66.60
4097;DHT22;2062;50.694;7.246;2023-02-25T02:34:38;4.60;66.40
4097;DHT22;2062;50.694;7.246;2023-02-25T02:37:20;4.50;66.50
4097;DHT22;2062;50.694;7.246;2023-02-25T02:39:52;4.50;66.40
4097;DHT22;2062;50.694;7.246;2023-02-25T02:42:29;4.50;66.40
4097;DHT22;2062;50.694;7.246;2023-02-25T02:45:01;4.50;66.40
4097;DHT22;2062;50.694;7.246;2023-02-25T02:47:32;4.50;66.40
4097;DHT22;2062;50.694;7.246;2023-02-25T02:50:04;4.50;66.40
4097;DHT22;2062;50.694;7.246;2023-02-25T02:52:34;4.50;66.30
4097;DHT22;2062;50.694;7.246;2023-02-25T02:55:06;4.50;66.40
4097;DHT22;2062;50.694;7.246;2023-02-25T02:57:37;4.40;66.20
4097;DHT22;2062;50.694;7.246;2023-02-25T03:00:10;4.40;66.20
4097;DHT22;2062;50.694;7.246;2023-02-25T03:02:45;4.50;66.30
4097;DHT22;2062;50.694;7.246;2023-02-25T03:05:17;4.40;66.20
4097;DHT22;2062;50.694;7.246;2023-02-25T03:07:49;4.40;66.20
4097;DHT22;2062;50.694;7.246;2023-02-25T03:10:18;4.40;66.20
4097;DHT22;2062;50.694;7.246;2023-02-25T03:12:47;4.40;66.20
4097;DHT22;2062;50.694;7.246;2023-02-25T03:15:14;4.40;66.20
4097;DHT22;2062;50.694;7.246;2023-02-25T03:17:46;4.40;66.40
4097;DHT22;2062;50.694;7.246;2023-02-25T03:20:18;4.40;66.20
4097;DHT22;2062;50.694;7.246;2023-02-25T03:22:47;4.40;66.20
4097;DHT22;2062;50.694;7.246;2023-02-25T03:25:19;4.40;66.30
4097;DHT22;2062;50.694;7.246;2023-02-25T03:27:47;4.40;66.40
4097;DHT22;2062;50.694;7.246;2023-02-25T03:30:20;4.30;66.20
4097;DHT22;2062;50.694;7.246;2023-02-25T03:32:55;4.40;66.20
4097;DHT22;2062;50.694;7.246;2023-02-25T03:35:29;4.40;66.30
4097;DHT22;2062;50.694;7.246;2023-02-25T03:38:01;4.40;66.30
4097;DHT22;2062;50.694;7.246;2023-02-25T03:40:29;4.40;66.30
4097;DHT22;2062;50.694;7.246;2023-02-25T03:43:01;4.40;66.40
4097;DHT22;2062;50.694;7.246;2023-02-25T03:45:32;4.40;66.30
4097;DHT22;2062;50.694;7.246;2023-02-25T03:48:01;4.40;66.40
4097;DHT22;2062;50.694;7.246;2023-02-25T03:50:32;4.30;66.50
4097;DHT22;2062;50.694;7.246;2023-02-25T03:53:00;4.40;66.50
4097;DHT22;2062;50.694;7.246;2023-02-25T03:55:28;4.30;66.50
4097;DHT22;2062;50.694;7.246;2023-02-25T03:57:55;4.30;66.40
4097;DHT22;2062;50.694;7.246;2023-02-25T04:00:26;4.30;66.40
4097;DHT22;2062;50.694;7.246;2023-02-25T04:02:53;4.30;66.40
4097;DHT22;2062;50.694;7.246;2023-02-25T04:05:22;4.30;66.40
4097;DHT22;2062;50.694;7.246;2023-02-25T04:07:52;4.30;66.40
4097;DHT22;2062;50.694;7.246;2023-02-25T04:10:19;4.30;66.50
4097;DHT22;2062;50.694;7.246;2023-02-25T04:12:46;4.30;66.50
4097;DHT22;2062;50.694;7.246;2023-02-25T04:15:14;4.30;66.40
4097;DHT22;2062;50.694;7.246;2023-02-25T04:17:41;4.30;66.40
4097;DHT22;2062;50.694;7.246;2023-02-25T04:20:11;4.30;66.50
4097;DHT22;2062;50.694;7.246;2023-02-25T04:22:40;4.30;66.40
4097;DHT22;2062;50.694;7.246;2023-02-25T04:25:07;4.30;66.50
4097;DHT22;2062;50.694;7.246;2023-02-25T04:27:34;4.30;66.40
4097;DHT22;2062;50.694;7.246;2023-02-25T04:30:01;4.30;66.40
4097;DHT22;2062;50.694;7.246;2023-02-25T04:32:28;4.30;66.40
4097;DHT22;2062;50.694;7.246;2023-02-25T04:34:55;4.20;66.40
4097;DHT22;2062;50.694;7.246;2023-02-25T04:37:27;4.30;66.40
4097;DHT22;2062;50.694;7.246;2023-02-25T04:39:55;4.30;66.30
4097;DHT22;2062;50.694;7.246;2023-02-25T04:42:22;4.30;66.40
4097;DHT22;2062;50.694;7.246;2023-02-25T04:44:49;4.30;66.40
4097;DHT22;2062;50.694;7.246;2023-02-25T04:47:16;4.20;66.40
4097;DHT22;2062;50.694;7.246;2023-02-25T04:49:43;4.30;66.60
4097;DHT22;2062;50.694;7.246;2023-02-25T04:52:10;4.20;66.50
4097;DHT22;2062;50.694;7.246;2023-02-25T04:54:38;4.20;66.40
4097;DHT22;2062;50.694;7.246;2023-02-25T04:57:06;4.20;66.50
4097;DHT22;2062;50.694;7.246;2023-02-25T04:59:33;4.20;66.60
4097;DHT22;2062;50.694;7.246;2023-02-25T05:02:00;4.20;66.50
4097;DHT22;2062;50.694;7.246;2023-02-25T05:04:27;4.20;66.50
4097;DHT22;2062;50.694;7.246;2023-02-25T05:06:53;4.20;66.50
4097;DHT22;2062;50.694;7.246;2023-02-25T05:09:20;4.20;66.50
4097;DHT22;2062;50.694;7.246;2023-02-25T05:11:48;4.20;66.50
4097;DHT22;2062;50.694;7.246;2023-02-25T05:14:16;4.20;66.60
4097;DHT22;2062;50.694;7.246;2023-02-25T05:16:43;4.20;66.70
4097;DHT22;2062;50.694;7.246;2023-02-25T05:19:14;4.20;66.70
4097;DHT22;2062;50.694;7.246;2023-02-25T05:21:42;4.20;66.70
4097;DHT22;2062;50.694;7.246;2023-02-25T05:24:09;4.20;66.70
4097;DHT22;2062;50.694;7.246;2023-02-25T05:26:37;4.20;67.60
4097;DHT22;2062;50.694;7.246;2023-02-25T05:29:05;4.20;66.70
4097;DHT22;2062;50.694;7.246;2023-02-25T05:31:34;4.20;66.80
4097;DHT22;2062;50.694;7.246;2023-02-25T05:34:01;4.10;66.70
4097;DHT22;2062;50.694;7.246;2023-02-25T05:36:28;4.20;66.90
4097;DHT22;2062;50.694;7.246;2023-02-25T05:38:56;4.20;66.80
4097;DHT22;2062;50.694;7.246;2023-02-25T05:41:27;4.10;66.80
4097;DHT22;2062;50.694;7.246;2023-02-25T05:43:55;4.10;66.80
4097;DHT22;2062;50.694;7.246;2023-02-25T05:46:22;4.10;66.70
4097;DHT22;2062;50.694;7.246;2023-02-25T05:48:50;4.20;66.90
4097;DHT22;2062;50.694;7.246;2023-02-25T05:51:20;4.10;67.00
4097;DHT22;2062;50.694;7.246;2023-02-25T05:53:48;4.10;67.00
4097;DHT22;2062;50.694;7.246;2023-02-25T05:56:16;4.10;67.10
4097;DHT22;2062;50.694;7.246;2023-02-25T05:58:43;4.10;67.00
4097;DHT22;2062;50.694;7.246;2023-02-25T06:01:15;4.20;67.00
4097;DHT22;2062;50.694;7.246;2023-02-25T06:03:43;4.20;67.10
4097;DHT22;2062;50.694;7.246;2023-02-25T06:06:13;4.10;66.90
4097;DHT22;2062;50.694;7.246;2023-02-25T06:08:40;4.10;67.00
4097;DHT22;2062;50.694;7.246;2023-02-25T06:11:10;4.10;67.00
4097;DHT22;2062;50.694;7.246;2023-02-25T06:13:39;4.10;67.10
4097;DHT22;2062;50.694;7.246;2023-02-25T06:16:06;4.10;67.10
4097;DHT22;2062;50.694;7.246;2023-02-25T06:18:33;4.10;67.00
4097;DHT22;2062;50.694;7.246;2023-02-25T06:21:03;4.10;67.10
4097;DHT22;2062;50.694;7.246;2023-02-25T06:23:33;4.10;67.10
4097;DHT22;2062;50.694;7.246;2023-02-25T06:26:01;4.10;67.10
4097;DHT22;2062;50.694;7.246;2023-02-25T06:28:29;4.10;67.10
4097;DHT22;2062;50.694;7.246;2023-02-25T06:30:56;4.10;67.10
4097;DHT22;2062;50.694;7.246;2023-02-25T06:33:23;4.10;67.10
4097;DHT22;2062;50.694;7.246;2023-02-25T06:35:50;4.10;67.10
4097;DHT22;2062;50.694;7.246;2023-02-25T06:38:18;4.10;67.10
4097;DHT22;2062;50.694;7.246;2023-02-25T06:40:47;4.10;67.10
4097;DHT22;2062;50.694;7.246;2023-02-25T06:43:14;4.10;67.10
4097;DHT22;2062;50.694;7.246;2023-02-25T06:45:41;4.10;67.10
4097;DHT22;2062;50.694;7.246;2023-02-25T06:48:09;4.10;67.10
4097;DHT22;2062;50.694;7.246;2023-02-25T06:50:37;4.10;67.10
4097;DHT22;2062;50.694;7.246;2023-02-25T06:53:04;4.10;67.00
4097;DHT22;2062;50.694;7.246;2023-02-25T06:55:32;4.10;67.10
4097;DHT22;2062;50.694;7.246;2023-02-25T06:58:00;4.10;67.10
4097;DHT22;2062;50.694;7.246;2023-02-25T07:00:27;4.10;67.10
4097;DHT22;2062;50.694;7.246;2023-02-25T07:02:53;4.10;67.20
4097;DHT22;2062;50.694;7.246;2023-02-25T07:05:20;4.10;67.10
4097;DHT22;2062;50.694;7.246;2023-02-25T07:07:47;4.10;67.10
4097;DHT22;2062;50.694;7.246;2023-02-25T07:10:14;4.10;67.10
4097;DHT22;2062;50.694;7.246;2023-02-25T07:12:41;4.10;67.10
4097;DHT22;2062;50.694;7.246;2023-02-25T07:15:10;4.10;67.00
4097;DHT22;2062;50.694;7.246;2023-02-25T07:17:36;4.10;67.10
4097;DHT22;2062;50.694;7.246;2023-02-25T07:20:04;4.10;67.10
4097;DHT22;2062;50.694;7.246;2023-02-25T07:22:31;4.10;67.10
4097;DHT22;2062;50.694;7.246;2023-02-25T07:24:57;4.10;67.20
4097;DHT22;2062;50.694;7.246;2023-02-25T07:27:25;4.10;67.10
4097;DHT22;2062;50.694;7.246;2023-02-25T07:29:52;4.10;67.10
4097;DHT22;2062;50.694;7.246;2023-02-25T07:32:22;4.20;67.10
4097;DHT22;2062;50.694;7.246;2023-02-25T07:34:49;4.20;67.20
4097;DHT22;2062;50.694;7.246;2023-02-25T07:37:16;4.20;67.10
4097;DHT22;2062;50.694;7.246;2023-02-25T07:39:43;4.20;67.10
4097;DHT22;2062;50.694;7.246;2023-02-25T07:42:09;4.20;67.00
4097;DHT22;2062;50.694;7.246;2023-02-25T07:44:36;4.20;67.00
4097;DHT22;2062;50.694;7.246;2023-02-25T07:47:03;4.20;67.10
4097;DHT22;2062;50.694;7.246;2023-02-25T07:49:31;4.20;67.10
4097;DHT22;2062;50.694;7.246;2023-02-25T07:52:01;4.20;67.10
4097;DHT22;2062;50.694;7.246;2023-02-25T07:54:28;4.20;67.10
4097;DHT22;2062;50.694;7.246;2023-02-25T07:56:55;4.30;67.20
4097;DHT22;2062;50.694;7.246;2023-02-25T07:59:22;4.20;67.10
4097;DHT22;2062;50.694;7.246;2023-02-25T08:01:50;4.20;67.20
4097;DHT22;2062;50.694;7.246;2023-02-25T08:04:17;4.20;67.20
4097;DHT22;2062;50.694;7.246;2023-02-25T08:06:45;4.30;67.40
4097;DHT22;2062;50.694;7.246;2023-02-25T08:09:12;4.30;67.40
4097;DHT22;2062;50.694;7.246;2023-02-25T08:11:40;4.30;67.30
4097;DHT22;2062;50.694;7.246;2023-02-25T08:14:07;4.30;67.30
4097;DHT22;2062;50.694;7.246;2023-02-25T08:16:34;4.30;67.40
4097;DHT22;2062;50.694;7.246;2023-02-25T08:19:01;4.30;67.30
4097;DHT22;2062;50.694;7.246;2023-02-25T08:21:28;4.30;67.30
4097;DHT22;2062;50.694;7.246;2023-02-25T08:23:57;4.30;67.30
4097;DHT22;2062;50.694;7.246;2023-02-25T08:26:25;4.40;67.30
4097;DHT22;2062;50.694;7.246;2023-02-25T08:28:56;4.40;67.30
4097;DHT22;2062;50.694;7.246;2023-02-25T08:31:29;4.40;67.20
4097;DHT22;2062;50.694;7.246;2023-02-25T08:34:02;4.40;67.30
4097;DHT22;2062;50.694;7.246;2023-02-25T08:36:32;4.40;67.30
4097;DHT22;2062;50.694;7.246;2023-02-25T08:39:05;4.40;67.20
4097;DHT22;2062;50.694;7.246;2023-02-25T08:41:33;4.40;67.30
4097;DHT22;2062;50.694;7.246;2023-02-25T08:44:00;4.40;67.20
4097;DHT22;2062;50.694;7.246;2023-02-25T08:46:29;4.50;67.40
4097;DHT22;2062;50.694;7.246;2023-02-25T08:48:56;4.50;67.40
4097;DHT22;2062;50.694;7.246;2023-02-25T08:51:25;4.50;67.50
4097;DHT22;2062;50.694;7.246;2023-02-25T08:53:59;4.50;67.50
4097;DHT22;2062;50.694;7.246;2023-02-25T08:56:28;4.50;67.70
4097;DHT22;2062;50.694;7.246;2023-02-25T08:58:55;4.60;67.60
4097;DHT22;2062;50.694;7.246;2023-02-25T09:01:22;4.60;67.60
4097;DHT22;2062;50.694;7.246;2023-02-25T09:03:49;4.60;67.80
4097;DHT22;2062;50.694;7.246;2023-02-25T09:06:17;4.60;67.90
4097;DHT22;2062;50.694;7.246;2023-02-25T09:08:44;4.70;68.00
4097;DHT22;2062;50.694;7.246;2023-02-25T09:11:11;4.70;68.20
4097;DHT22;2062;50.694;7.246;2023-02-25T09:13:39;4.70;68.10
4097;DHT22;2062;50.694;7.246;2023-02-25T09:16:06;4.80;68.10
4097;DHT22;2062;50.694;7.246;2023-02-25T09:18:33;4.80;68.10
4097;DHT22;2062;50.694;7.246;2023-02-25T09:21:00;4.90;68.20
4097;DHT22;2062;50.694;7.246;2023-02-25T09:23:27;5.00;68.10
4097;DHT22;2062;50.694;7.246;2023-02-25T09:25:54;5.10;68.00
4097;DHT22;2062;50.694;7.246;2023-02-25T09:28:21;5.10;68.10
4097;DHT22;2062;50.694;7.246;2023-02-25T09:30:49;5.10;68.00
4097;DHT22;2062;50.694;7.246;2023-02-25T09:33:16;5.30;68.10
4097;DHT22;2062;50.694;7.246;2023-02-25T09:35:43;5.30;68.10
4097;DHT22;2062;50.694;7.246;2023-02-25T09:38:10;5.30;67.90
4097;DHT22;2062;50.694;7.246;2023-02-25T09:40:38;5.30;67.50
4097;DHT22;2062;50.694;7.246;2023-02-25T09:43:18;5.40;67.40
4097;DHT22;2062;50.694;7.246;2023-02-25T09:45:48;5.40;67.10
4097;DHT22;2062;50.694;7.246;2023-02-25T09:48:22;5.40;66.90
4097;DHT22;2062;50.694;7.246;2023-02-25T09:50:55;5.40;66.40
4097;DHT22;2062;50.694;7.246;2023-02-25T09:53:28;5.30;66.40
4097;DHT22;2062;50.694;7.246;2023-02-25T09:55:56;5.30;66.40
4097;DHT22;2062;50.694;7.246;2023-02-25T09:58:29;5.30;66.50
4097;DHT22;2062;50.694;7.246;2023-02-25T10:01:05;5.40;66.60
4097;DHT22;2062;50.694;7.246;2023-02-25T10:03:46;5.20;66.60
4097;DHT22;2062;50.694;7.246;2023-02-25T10:06:19;5.20;66.70
4097;DHT22;2062;50.694;7.246;2023-02-25T10:08:52;5.20;66.70
4097;DHT22;2062;50.694;7.246;2023-02-25T10:11:40;5.20;66.80
4097;DHT22;2062;50.694;7.246;2023-02-25T10:14:31;5.20;66.90
4097;DHT22;2062;50.694;7.246;2023-02-25T10:17:11;5.20;67.00
4097;DHT22;2062;50.694;7.246;2023-02-25T10:19:53;4.90;67.60
4097;DHT22;2062;50.694;7.246;2023-02-25T10:22:37;5.10;67.10
4097;DHT22;2062;50.694;7.246;2023-02-25T10:25:17;5.10;67.10
4097;DHT22;2062;50.694;7.246;2023-02-25T10:27:50;5.10;67.30
4097;DHT22;2062;50.694;7.246;2023-02-25T10:30:22;5.10;67.00
4097;DHT22;2062;50.694;7.246;2023-02-25T10:32:53;5.10;67.10
4097;DHT22;2062;50.694;7.246;2023-02-25T10:35:24;5.10;67.10
4097;DHT22;2062;50.694;7.246;2023-02-25T10:37:56;5.10;67.10
4097;DHT22;2062;50.694;7.246;2023-02-25T10:40:24;5.10;67.10
4097;DHT22;2062;50.694;7.246;2023-02-25T10:42:55;5.10;67.10
4097;DHT22;2062;50.694;7.246;2023-02-25T10:45:26;5.10;67.10
4097;DHT22;2062;50.694;7.246;2023-02-25T10:48:00;5.20;67.20
4097;DHT22;2062;50.694;7.246;2023-02-25T10:50:32;5.20;67.30
4097;DHT22;2062;50.694;7.246;2023-02-25T10:53:01;5.20;67.30
4097;DHT22;2062;50.694;7.246;2023-02-25T10:55:40;5.20;67.30
4097;DHT22;2062;50.694;7.246;2023-02-25T10:58:26;5.30;67.80
4097;DHT22;2062;50.694;7.246;2023-02-25T11:01:00;5.30;68.10
4097;DHT22;2062;50.694;7.246;2023-02-25T11:03:32;5.40;67.90
4097;DHT22;2062;50.694;7.246;2023-02-25T11:06:30;5.40;68.10
4097;DHT22;2062;50.694;7.246;2023-02-25T11:09:33;5.50;68.30
4097;DHT22;2062;50.694;7.246;2023-02-25T11:12:15;5.70;68.20
4097;DHT22;2062;50.694;7.246;2023-02-25T11:14:45;5.80;68.10
4097;DHT22;2062;50.694;7.246;2023-02-25T11:17:19;5.80;68.00
4097;DHT22;2062;50.694;7.246;2023-02-25T11:20:00;5.90;67.70
4097;DHT22;2062;50.694;7.246;2023-02-25T11:22:34;6.00;67.70
4097;DHT22;2062;50.694;7.246;2023-02-25T11:25:13;6.10;67.60
4097;DHT22;2062;50.694;7.246;2023-02-25T11:27:42;6.20;67.40
4097;DHT22;2062;50.694;7.246;2023-02-25T11:30:17;6.30;67.50
4097;DHT22;2062;50.694;7.246;2023-02-25T11:32:48;6.30;67.40
4097;DHT22;2062;50.694;7.246;2023-02-25T11:35:28;6.40;66.90
4097;DHT22;2062;50.694;7.246;2023-02-25T11:37:56;6.50;66.60
4097;DHT22;2062;50.694;7.246;2023-02-25T11:40:26;6.50;66.20
4097;DHT22;2062;50.694;7.246;2023-02-25T11:45:54;6.50;65.60
4097;DHT22;2062;50.694;7.246;2023-02-25T11:48:24;6.50;65.80
4097;DHT22;2062;50.694;7.246;2023-02-25T11:51:03;6.60;65.80
4097;DHT22;2062;50.694;7.246;2023-02-25T11:53:43;6.50;65.80
4097;DHT22;2062;50.694;7.246;2023-02-25T11:56:19;6.50;65.40
4097;DHT22;2062;50.694;7.246;2023-02-25T11:58:54;6.50;64.70
4097;DHT22;2062;50.694;7.246;2023-02-25T12:01:38;6.50;64.20
4097;DHT22;2062;50.694;7.246;2023-02-25T12:04:35;6.50;64.10
4097;DHT22;2062;50.694;7.246;2023-02-25T12:07:21;6.40;63.80
4097;DHT22;2062;50.694;7.246;2023-02-25T12:10:18;6.40;64.20
4097;DHT22;2062;50.694;7.246;2023-02-25T12:13:18;6.40;64.20
4097;DHT22;2062;50.694;7.246;2023-02-25T12:16:28;6.30;63.80
4097;DHT22;2062;50.694;7.246;2023-02-25T12:22:38;6.30;63.60
4097;DHT22;2062;50.694;7.246;2023-02-25T12:25:18;6.30;64.10
4097;DHT22;2062;50.694;7.246;2023-02-25T12:28:07;6.30;64.10
4097;DHT22;2062;50.694;7.246;2023-02-25T12:30:46;6.30;64.20
4097;DHT22;2062;50.694;7.246;2023-02-25T12:33:53;6.30;64.40
4097;DHT22;2062;50.694;7.246;2023-02-25T12:36:30;6.40;64.20
4097;DHT22;2062;50.694;7.246;2023-02-25T12:39:18;6.30;64.10
4097;DHT22;2062;50.694;7.246;2023-02-25T12:41:54;6.40;64.00
4097;DHT22;2062;50.694;7.246;2023-02-25T12:44:47;6.30;63.50
4097;DHT22;2062;50.694;7.246;2023-02-25T12:47:23;6.30;63.70
4097;DHT22;2062;50.694;7.246;2023-02-25T12:50:03;6.40;63.60
4097;DHT22;2062;50.694;7.246;2023-02-25T12:52:41;6.30;63.80
4097;DHT22;2062;50.694;7.246;2023-02-25T12:58:25;6.30;64.30
4097;DHT22;2062;50.694;7.246;2023-02-25T13:01:13;6.50;63.90
4097;DHT22;2062;50.694;7.246;2023-02-25T13:04:08;6.30;63.50
4097;DHT22;2062;50.694;7.246;2023-02-25T13:06:50;6.30;63.00
4097;DHT22;2062;50.694;7.246;2023-02-25T13:09:28;6.30;63.00
4097;DHT22;2062;50.694;7.246;2023-02-25T13:12:09;6.30;62.50
4097;DHT22;2062;50.694;7.246;2023-02-25T13:14:48;6.30;62.30
4097;DHT22;2062;50.694;7.246;2023-02-25T13:17:36;6.20;62.30
4097;DHT22;2062;50.694;7.246;2023-02-25T13:23:29;6.20;62.00
4097;DHT22;2062;50.694;7.246;2023-02-25T13:26:09;6.20;61.70
4097;DHT22;2062;50.694;7.246;2023-02-25T13:28:56;6.10;61.30
4097;DHT22;2062;50.694;7.246;2023-02-25T13:31:35;6.10;60.60
4097;DHT22;2062;50.694;7.246;2023-02-25T13:34:16;6.10;60.70
4097;DHT22;2062;50.694;7.246;2023-02-25T13:36:57;6.10;60.30
4097;DHT22;2062;50.694;7.246;2023-02-25T13:39:42;6.10;60.70
4097;DHT22;2062;50.694;7.246;2023-02-25T13:42:26;6.20;61.40
4097;DHT22;2062;50.694;7.246;2023-02-25T13:45:37;6.30;60.70
4097;DHT22;2062;50.694;7.246;2023-02-25T13:48:36;6.40;60.70
4097;DHT22;2062;50.694;7.246;2023-02-25T13:51:28;6.50;61.30
4097;DHT22;2062;50.694;7.246;2023-02-25T13:54:19;6.60;60.70
4097;DHT22;2062;50.694;7.246;2023-02-25T13:56:57;6.70;60.60
4097;DHT22;2062;50.694;7.246;2023-02-25T13:59:42;6.80;59.80
4097;DHT22;2062;50.694;7.246;2023-02-25T14:02:32;6.90;59.40
4097;DHT22;2062;50.694;7.246;2023-02-25T14:05:24;6.90;59.70
4097;DHT22;2062;50.694;7.246;2023-02-25T14:08:22;6.90;59.00
4097;DHT22;2062;50.694;7.246;2023-02-25T14:10:53;7.00;58.10
4097;DHT22;2062;50.694;7.246;2023-02-25T14:13:45;7.00;57.60
4097;DHT22;2062;50.694;7.246;2023-02-25T14:16:37;6.90;57.70
4097;DHT22;2062;50.694;7.246;2023-02-25T14:19:23;7.00;58.00
4097;DHT22;2062;50.694;7.246;2023-02-25T14:22:23;7.00;57.10
4097;DHT22;2062;50.694;7.246;2023-02-25T14:25:00;6.90;58.00
4097;DHT22;2062;50.694;7.246;2023-02-25T14:27:32;7.00;57.40
4097;DHT22;2062;50.694;7.246;2023-02-25T14:30:11;7.00;58.40
4097;DHT22;2062;50.694;7.246;2023-02-25T14:32:50;7.10;58.60
4097;DHT22;2062;50.694;7.246;2023-02-25T14:35:33;7.20;58.50
4097;DHT22;2062;50.694;7.246;2023-02-25T14:38:08;7.30;58.20
4097;DHT22;2062;50.694;7.246;2023-02-25T14:40:41;7.40;57.20
4097;DHT22;2062;50.694;7.246;2023-02-25T14:43:35;7.40;57.10
4097;DHT22;2062;50.694;7.246;2023-02-25T14:46:09;7.50;56.90
4097;DHT22;2062;50.694;7.246;2023-02-25T14:48:43;7.60;56.40
4097;DHT22;2062;50.694;7.246;2023-02-25T14:51:33;7.50;56.60
4097;DHT22;2062;50.694;7.246;2023-02-25T14:57:16;7.50;55.20
4097;DHT22;2062;50.694;7.246;2023-02-25T15:00:12;7.50;55.80
4097;DHT22;2062;50.694;7.246;2023-02-25T15:03:01;7.50;55.40
4097;DHT22;2062;50.694;7.246;2023-02-25T15:05:41;7.40;53.90
4097;DHT22;2062;50.694;7.246;2023-02-25T15:08:44;7.40;54.10
4097;DHT22;2062;50.694;7.246;2023-02-25T15:14:48;7.30;52.70
4097;DHT22;2062;50.694;7.246;2023-02-25T15:20:32;7.20;53.10
4097;DHT22;2062;50.694;7.246;2023-02-25T15:23:07;7.20;53.80
4097;DHT22;2062;50.694;7.246;2023-02-25T15:25:42;7.30;53.40
4097;DHT22;2062;50.694;7.246;2023-02-25T15:28:40;7.30;53.70
4097;DHT22;2062;50.694;7.246;2023-02-25T15:31:23;7.30;52.50
4097;DHT22;2062;50.694;7.246;2023-02-25T15:34:07;7.30;52.20
4097;DHT22;2062;50.694;7.246;2023-02-25T15:37:16;7.30;52.50
4097;DHT22;2062;50.694;7.246;2023-02-25T15:39:49;7.20;51.80
4097;DHT22;2062;50.694;7.246;2023-02-25T15:42:42;7.20;52.00
4097;DHT22;2062;50.694;7.246;2023-02-25T15:45:31;7.20;51.90
4097;DHT22;2062;50.694;7.246;2023-02-25T15:48:32;7.10;50.10
4097;DHT22;2062;50.694;7.246;2023-02-25T15:51:00;7.00;50.80
4097;DHT22;2062;50.694;7.246;2023-02-25T15:53:44;7.00;49.60
4097;DHT22;2062;50.694;7.246;2023-02-25T15:59:05;6.90;50.30
4097;DHT22;2062;50.694;7.246;2023-02-25T16:01:40;6.80;49.40
4097;DHT22;2062;50.694;7.246;2023-02-25T16:04:45;6.80;48.00
4097;DHT22;2062;50.694;7.246;2023-02-25T16:07:15;6.70;49.70
4097;DHT22;2062;50.694;7.246;2023-02-25T16:09:47;6.70;49.70
4097;DHT22;2062;50.694;7.246;2023-02-25T16:12:15;6.60;49.80
4097;DHT22;2062;50.694;7.246;2023-02-25T16:14:45;6.60;50.00
4097;DHT22;2062;50.694;7.246;2023-02-25T16:17:16;6.50;49.40
4097;DHT22;2062;50.694;7.246;2023-02-25T16:19:46;6.50;49.80
4097;DHT22;2062;50.694;7.246;2023-02-25T16:22:17;6.40;49.40
4097;DHT22;2062;50.694;7.246;2023-02-25T16:24:47;6.40;50.00
4097;DHT22;2062;50.694;7.246;2023-02-25T16:27:27;6.40;50.20
4097;DHT22;2062;50.694;7.246;2023-02-25T16:30:05;6.30;48.90
4097;DHT22;2062;50.694;7.246;2023-02-25T16:32:40;6.30;48.90
4097;DHT22;2062;50.694;7.246;2023-02-25T16:35:13;6.20;49.10
4097;DHT22;2062;50.694;7.246;2023-02-25T16:37:46;6.20;49.30
4097;DHT22;2062;50.694;7.246;2023-02-25T16:40:20;6.10;49.00
4097;DHT22;2062;50.694;7.246;2023-02-25T16:42:48;6.10;48.60
4097;DHT22;2062;50.694;7.246;2023-02-25T16:45:24;6.00;48.20
4097;DHT22;2062;50.694;7.246;2023-02-25T16:47:54;6.00;47.60
4097;DHT22;2062;50.694;7.246;2023-02-25T16:50:23;5.90;48.10
4097;DHT22;2062;50.694;7.246;2023-02-25T16:52:51;5.80;46.60
4097;DHT22;2062;50.694;7.246;2023-02-25T16:55:20;5.80;46.80
4097;DHT22;2062;50.694;7.246;2023-02-25T16:58:00;5.70;46.50
4097;DHT22;2062;50.694;7.246;2023-02-25T17:00:29;5.60;46.00
4097;DHT22;2062;50.694;7.246;2023-02-25T17:02:58;5.50;46.30
4097;DHT22;2062;50.694;7.246;2023-02-25T17:05:29;5.50;46.20
4097;DHT22;2062;50.694;7.246;2023-02-25T17:07:58;5.40;45.50
4097;DHT22;2062;50.694;7.246;2023-02-25T17:10:29;5.30;45.40
4097;DHT22;2062;50.694;7.246;2023-02-25T17:12:56;5.20;45.60
4097;DHT22;2062;50.694;7.246;2023-02-25T17:15:27;5.10;46.00
4097;DHT22;2062;50.694;7.246;2023-02-25T17:18:01;5.00;45.60
4097;DHT22;2062;50.694;7.246;2023-02-25T17:20:28;4.90;46.50
4097;DHT22;2062;50.694;7.246;2023-02-25T17:22:57;4.80;45.60